Aérodrome :
LOGIN :

S'inscrire | Disclaimer

   EN    FR    IT 

 










Légende :    VFR   VFR Marginal   IFR   IFR Intensif   IFR Très Intensif
Visi : 
Plafond : 
>= 8 km
>= 3000ft
5 à 8 km
1000 à 3000 ft
1500m à 5 km
500 à 1000 ft
800 à 1500m
200 à 500 ft
< 800m
< 200 ft
Symboles :   Orages  Brouillard  Fortes neiges  Fortes précipitations  Vent > 20 kt
SIGMETs :   Divers  Orages  Givrage  Turbulence  Onde Orograph.  Cendres Volcan.






- Altitude de l'aérodrome : 659 ft
- Code IATA : LGG


EBLG - Liège

DERNIER METAR :
  • 271320Z VRB03KT CAVOK 09/05 Q1018 NOSIG

METARs EXPIRÉS :
  • 271250Z 08004KT 030V130 CAVOK 10/05 Q1018 NOSIG
  • 271220Z 09003KT 040V140 CAVOK 09/05 Q1018 NOSIG
  • 271150Z VRB02KT CAVOK 09/04 Q1018 NOSIG
  • 271120Z VRB02KT CAVOK 09/05 Q1019 NOSIG
  • 271050Z 15003KT 120V190 CAVOK 08/05 Q1019 NOSIG

TAF TAF EBLG
Valide du 27 à 12h jusqu'au 28 à 18h UTC


271110Z 2712/2818 12003KT CAVOK
PROB30
TEMPO 2800/2805 4500 BR



MET'MAP, la Météo Aéronautique d'un coup d'oeil ! - Copyright ORBIFLY Décembre 2007 - Disclaimer

ORBIFLY MET'MAP TEAM :

Programmation & Développement : Alexandra Zaïnal
Sur une idée originale de : Baudouin d'Aumeries
Assistance à la programmation : Marc-Olivier Méhu
Soutien technique & logistique : Manuel Goepfert

Contact : metmap@orbifly.com




SOURCES & CREDITS :

   NOAA